Time;durP1;ratioP1;P1;durP2;ratioP2;P2;SDS_P1;SDS_P2;PMS_P1;PMS_P2;Temp;Humidity;BMP_temperature;BMP_pressure;BME280_temperature;BME280_humidity;BME280_pressure;Samples;Min_cycle;Max_cycle;Signal;HPM_P1;HPM_P2
2023/09/30 00:01:29;;;;;;;33.67;18.13;;;;;;;;;;10441016;22;20019;-92
2023/09/30 00:05:32;;;;;;;34.22;18.17;;;;;;;;;;10440919;22;20039;-91
2023/09/30 00:09:35;;;;;;;35.28;18.88;;;;;;;;;;10440763;22;20023;-92
2023/09/30 00:13:40;;;;;;;35.35;18.10;;;;;;;;;;10440759;22;20339;-92
2023/09/30 00:17:43;;;;;;;36.47;19.65;;;;;;;;;;10440341;22;20076;-91
2023/09/30 00:21:46;;;;;;;40.80;20.73;;;;;;;;;;10440613;22;20619;-91
2023/09/30 00:25:50;;;;;;;37.05;19.90;;;;;;;;;;10440882;22;20021;-91
2023/09/30 00:29:54;;;;;;;38.13;19.17;;;;;;;;;;10440252;22;20031;-92
2023/09/30 00:33:57;;;;;;;40.53;19.98;;;;;;;;;;10440667;22;20443;-93
2023/09/30 00:38:00;;;;;;;31.52;18.58;;;;;;;;;;10440549;22;20064;-92
2023/09/30 00:42:04;;;;;;;33.88;18.70;;;;;;;;;;10439916;22;20051;-91
2023/09/30 00:46:23;;;;;;;34.42;18.25;;;;;;;;;;10440143;22;20019;-92
2023/09/30 00:50:28;;;;;;;32.67;18.08;;;;;;;;;;10456644;22;20015;-91
2023/09/30 00:54:32;;;;;;;29.55;18.08;;;;;;;;;;10439984;22;20090;-91
2023/09/30 00:58:37;;;;;;;33.10;17.45;;;;;;;;;;10440328;22;20094;-92
2023/09/30 01:02:41;;;;;;;32.67;17.65;;;;;;;;;;10440076;22;20447;-91
2023/09/30 01:06:45;;;;;;;32.05;18.35;;;;;;;;;;10440274;22;20019;-91
2023/09/30 01:10:48;;;;;;;34.47;18.88;;;;;;;;;;10440102;22;20053;-92
2023/09/30 01:14:51;;;;;;;31.15;17.60;;;;;;;;;;10439971;22;20023;-92
2023/09/30 01:18:56;;;;;;;36.13;17.92;;;;;;;;;;10439997;22;20027;-92
2023/09/30 01:23:00;;;;;;;37.22;18.90;;;;;;;;;;10439734;22;20015;-92
2023/09/30 01:27:06;;;;;;;34.65;18.75;;;;;;;;;;10439376;22;20015;-92
2023/09/30 01:31:09;;;;;;;31.30;18.00;;;;;;;;;;10439674;22;20090;-92
2023/09/30 01:35:12;;;;;;;28.65;16.38;;;;;;;;;;10439593;22;20047;-92
2023/09/30 01:39:17;;;;;;;27.63;16.75;;;;;;;;;;10439970;22;20157;-92
2023/09/30 01:43:20;;;;;;;28.35;17.38;;;;;;;;;;10439314;22;20019;-91
2023/09/30 01:47:23;;;;;;;28.63;16.92;;;;;;;;;;10439646;22;20442;-92
2023/09/30 01:51:27;;;;;;;30.13;17.83;;;;;;;;;;10440062;22;20023;-92
2023/09/30 01:55:41;;;;;;;28.08;15.98;;;;;;;;;;10438737;22;20030;-91
2023/09/30 01:59:44;;;;;;;27.75;16.60;;;;;;;;;;10456740;22;20064;-91
2023/09/30 02:03:47;;;;;;;26.60;16.35;;;;;;;;;;10442525;22;20025;-92
2023/09/30 02:07:54;;;;;;;28.30;15.80;;;;;;;;;;10443031;22;20015;-91
2023/09/30 02:11:58;;;;;;;29.40;15.55;;;;;;;;;;10460338;22;20046;-92
2023/09/30 02:16:01;;;;;;;25.90;15.80;;;;;;;;;;10442808;22;20023;-90
2023/09/30 02:20:07;;;;;;;27.38;16.80;;;;;;;;;;10442815;22;20019;-92
2023/09/30 02:24:11;;;;;;;22.55;15.02;;;;;;;;;;10442274;22;20019;-91
2023/09/30 02:28:15;;;;;;;25.02;15.13;;;;;;;;;;10442441;22;20090;-93
2023/09/30 02:32:18;;;;;;;30.63;15.68;;;;;;;;;;10442267;22;20015;-92
2023/09/30 02:36:21;;;;;;;24.08;16.27;;;;;;;;;;10441427;22;20053;-94
2023/09/30 02:40:25;;;;;;;25.17;15.90;;;;;;;;;;10441133;22;20050;-93
2023/09/30 02:44:39;;;;;;;23.92;15.82;;;;;;;;;;10441147;22;20019;-93
2023/09/30 02:48:42;;;;;;;25.55;15.90;;;;;;;;;;10441118;22;20022;-92
2023/09/30 02:52:52;;;;;;;21.85;14.63;;;;;;;;;;10412824;22;20022;-92
2023/09/30 03:01:16;;;;;;;29.98;15.75;;;;;;;;;;10438027;22;20050;-92
2023/09/30 03:09:46;;;;;;;24.48;14.98;;;;;;;;;;10439974;22;20023;-92
2023/09/30 03:14:17;;;;;;;21.42;14.10;;;;;;;;;;10440316;22;20116;-90
2023/09/30 03:18:26;;;;;;;20.70;14.25;;;;;;;;;;10440982;22;20019;-93
2023/09/30 03:22:29;;;;;;;72.13;48.58;;;;;;;;;;10440634;22;20047;-93
2023/09/30 03:26:32;;;;;;;82.38;50.30;;;;;;;;;;10440906;22;20019;-91
2023/09/30 03:30:35;;;;;;;89.55;53.63;;;;;;;;;;10412186;22;20072;-92
2023/09/30 03:34:44;;;;;;;75.53;47.55;;;;;;;;;;10441377;22;20023;-91
2023/09/30 03:38:47;;;;;;;101.68;59.65;;;;;;;;;;10458095;22;20465;-92
2023/09/30 03:42:50;;;;;;;65.32;40.65;;;;;;;;;;10440261;22;20078;-91
2023/09/30 03:46:54;;;;;;;38.80;22.60;;;;;;;;;;10440662;22;20090;-92
2023/09/30 03:50:58;;;;;;;28.45;17.05;;;;;;;;;;10439929;22;20087;-90
2023/09/30 03:55:04;;;;;;;29.40;18.60;;;;;;;;;;10439042;22;20035;-92
2023/09/30 03:59:18;;;;;;;24.90;16.42;;;;;;;;;;10387116;22;20023;-92
2023/09/30 04:03:22;;;;;;;21.63;14.15;;;;;;;;;;10438847;22;20023;-91
2023/09/30 04:07:27;;;;;;;29.55;20.45;;;;;;;;;;10439962;22;20015;-92
2023/09/30 04:11:30;;;;;;;83.68;52.53;;;;;;;;;;10439211;22;20019;-92
2023/09/30 04:15:34;;;;;;;48.85;29.33;;;;;;;;;;10439976;22;20025;-91
2023/09/30 04:19:37;;;;;;;23.85;16.33;;;;;;;;;;10440121;22;20554;-93
2023/09/30 04:23:43;;;;;;;41.80;28.25;;;;;;;;;;10439178;22;20019;-90
2023/09/30 04:27:47;;;;;;;28.33;20.35;;;;;;;;;;10456921;22;20022;-92
2023/09/30 04:31:50;;;;;;;28.38;18.90;;;;;;;;;;10411908;22;20459;-93
2023/09/30 04:36:00;;;;;;;29.95;19.77;;;;;;;;;;10439810;22;20015;-92
2023/09/30 04:40:09;;;;;;;26.50;16.17;;;;;;;;;;10439396;22;20025;-93
2023/09/30 04:44:12;;;;;;;22.98;15.07;;;;;;;;;;10456944;22;20022;-90
2023/09/30 04:48:18;;;;;;;25.08;15.07;;;;;;;;;;10439967;22;20019;-93
2023/09/30 04:52:28;;;;;;;24.95;16.13;;;;;;;;;;10439096;22;20027;-91
2023/09/30 04:56:53;;;;;;;26.48;14.93;;;;;;;;;;10432731;22;20027;-92
2023/09/30 05:00:59;;;;;;;23.35;15.52;;;;;;;;;;10452168;22;20024;-92
2023/09/30 05:05:05;;;;;;;27.85;16.23;;;;;;;;;;10439253;22;20346;-92
2023/09/30 05:13:36;;;;;;;33.13;17.30;;;;;;;;;;10434482;22;20023;-92
2023/09/30 05:17:39;;;;;;;39.13;22.02;;;;;;;;;;10443474;22;20023;-92
2023/09/30 05:21:51;;;;;;;25.23;18.73;;;;;;;;;;10453049;22;20092;-92
2023/09/30 05:26:08;;;;;;;30.70;18.55;;;;;;;;;;10413904;22;20077;-91
2023/09/30 05:30:22;;;;;;;26.10;18.25;;;;;;;;;;10413116;22;20023;-92
2023/09/30 05:34:25;;;;;;;25.08;18.23;;;;;;;;;;10412349;22;20023;-92
2023/09/30 05:38:32;;;;;;;25.42;17.83;;;;;;;;;;10411342;22;20065;-93
2023/09/30 05:42:46;;;;;;;28.30;17.35;;;;;;;;;;10439793;22;20024;-91
2023/09/30 05:46:50;;;;;;;23.58;16.02;;;;;;;;;;10457022;22;20019;-92
2023/09/30 05:50:53;;;;;;;22.95;16.35;;;;;;;;;;10439923;22;20384;-92
2023/09/30 05:54:57;;;;;;;24.58;16.80;;;;;;;;;;10439748;22;20019;-92
2023/09/30 05:59:00;;;;;;;25.27;16.40;;;;;;;;;;10439408;22;20058;-92
2023/09/30 06:03:06;;;;;;;26.73;15.48;;;;;;;;;;10439409;22;20030;-92
2023/09/30 06:07:11;;;;;;;24.73;15.63;;;;;;;;;;10439210;22;20019;-92
2023/09/30 06:11:18;;;;;;;24.23;16.90;;;;;;;;;;10411712;22;20020;-92
2023/09/30 06:15:25;;;;;;;22.73;15.40;;;;;;;;;;10456523;22;20019;-91
2023/09/30 06:19:30;;;;;;;30.90;16.77;;;;;;;;;;10456356;22;20311;-92
2023/09/30 06:23:33;;;;;;;31.95;20.08;;;;;;;;;;10438713;22;20372;-91
2023/09/30 06:27:37;;;;;;;25.40;17.20;;;;;;;;;;10438887;22;20016;-91
2023/09/30 06:31:40;;;;;;;27.40;17.08;;;;;;;;;;10439287;22;20023;-91
2023/09/30 06:35:50;;;;;;;24.85;16.65;;;;;;;;;;10439657;22;20098;-91
2023/09/30 06:39:53;;;;;;;22.23;15.48;;;;;;;;;;10445979;22;20097;-92
2023/09/30 06:43:56;;;;;;;25.20;16.35;;;;;;;;;;10439360;22;20023;-91
2023/09/30 06:47:59;;;;;;;22.52;14.10;;;;;;;;;;10439364;22;20090;-93
2023/09/30 06:52:04;;;;;;;25.15;14.93;;;;;;;;;;10441800;22;20112;-92
2023/09/30 06:56:08;;;;;;;20.90;14.68;;;;;;;;;;10440043;22;20347;-92
2023/09/30 07:00:16;;;;;;;23.88;15.55;;;;;;;;;;10436919;22;20034;-92
2023/09/30 07:04:19;;;;;;;19.15;13.98;;;;;;;;;;10422862;22;20038;-93
2023/09/30 07:08:55;;;;;;;22.35;15.63;;;;;;;;;;10432945;22;20050;-92
2023/09/30 07:13:06;;;;;;;16.85;12.48;;;;;;;;;;10435513;22;20096;-92
2023/09/30 07:17:09;;;;;;;17.98;14.05;;;;;;;;;;10436894;22;20094;-93
2023/09/30 07:21:14;;;;;;;18.85;14.02;;;;;;;;;;10436793;22;20026;-93
2023/09/30 07:25:19;;;;;;;21.08;15.38;;;;;;;;;;10454191;22;20105;-93
2023/09/30 07:42:33;;;;;;;18.27;14.90;;;;;;;;;;8431996;27;1980230;-96
2023/09/30 07:46:37;;;;;;;18.85;14.13;;;;;;;;;;8470052;28;20096;-96
2023/09/30 07:50:43;;;;;;;21.75;14.30;;;;;;;;;;8461474;28;20117;-94
2023/09/30 07:54:47;;;;;;;20.67;14.75;;;;;;;;;;8464935;28;20047;-96
2023/09/30 07:58:53;;;;;;;20.00;15.63;;;;;;;;;;8459938;28;20051;-94
2023/09/30 08:03:02;;;;;;;22.30;14.23;;;;;;;;;;8469153;28;20064;-94
2023/09/30 08:07:14;;;;;;;20.33;15.57;;;;;;;;;;8474735;28;20043;-95
2023/09/30 08:11:27;;;;;;;18.58;13.13;;;;;;;;;;8479290;28;20071;-95
2023/09/30 08:15:49;;;;;;;17.83;12.88;;;;;;;;;;8467507;28;20044;-96
2023/09/30 08:20:05;;;;;;;16.00;11.23;;;;;;;;;;8480557;27;20052;-95
2023/09/30 08:28:36;;;;;;;18.02;11.48;;;;;;;;;;8455063;28;20473;-92
2023/09/30 08:32:47;;;;;;;19.33;13.02;;;;;;;;;;8438457;23;20056;-94
2023/09/30 08:36:53;;;;;;;15.57;12.80;;;;;;;;;;8356046;28;20127;-93
2023/09/30 08:41:08;;;;;;;19.92;13.85;;;;;;;;;;8377260;28;20207;-90
2023/09/30 08:45:19;;;;;;;20.23;15.18;;;;;;;;;;8330820;28;20107;-93
2023/09/30 08:49:27;;;;;;;23.88;15.80;;;;;;;;;;8337427;28;20065;-93
2023/09/30 08:53:33;;;;;;;22.30;16.73;;;;;;;;;;8381120;23;20071;-95
2023/09/30 08:57:44;;;;;;;27.10;17.98;;;;;;;;;;8452414;28;20059;-94
2023/09/30 09:01:48;;;;;;;27.27;17.58;;;;;;;;;;8465422;28;20070;-92
2023/09/30 09:06:00;;;;;;;24.80;17.67;;;;;;;;;;8452964;28;20044;-93
2023/09/30 09:10:09;;;;;;;26.90;18.48;;;;;;;;;;8459605;28;20063;-92
2023/09/30 09:14:46;;;;;;;;;;;;;;;;;;8454404;28;20047;-93
2023/09/30 09:19:16;;;;;;;25.38;17.73;;;;;;;;;;8353285;28;20571;-92
2023/09/30 09:23:21;;;;;;;23.80;17.75;;;;;;;;;;8449043;28;20084;-95
2023/09/30 09:27:37;;;;;;;24.85;19.35;;;;;;;;;;8466015;28;20051;-93
2023/09/30 09:36:01;;;;;;;28.30;19.05;;;;;;;;;;8452727;28;20040;-93
2023/09/30 09:40:32;;;;;;;31.60;20.48;;;;;;;;;;8442278;28;20046;-92
2023/09/30 09:44:40;;;;;;;30.17;20.40;;;;;;;;;;8428615;28;20407;-93
2023/09/30 09:53:28;;;;;;;26.83;19.85;;;;;;;;;;8379170;28;20087;-90
2023/09/30 09:57:53;;;;;;;29.20;21.77;;;;;;;;;;8381109;28;20056;-92
2023/09/30 10:02:15;;;;;;;31.17;22.08;;;;;;;;;;8351947;28;20049;-92
2023/09/30 10:06:20;;;;;;;34.70;21.98;;;;;;;;;;8411730;22;20172;-92
2023/09/30 10:10:28;;;;;;;31.27;23.05;;;;;;;;;;8418409;28;20050;-96
2023/09/30 10:14:51;;;;;;;33.72;23.35;;;;;;;;;;8423210;28;20050;-90
2023/09/30 10:19:37;;;;;;;29.27;21.65;;;;;;;;;;8429919;28;20222;-93
2023/09/30 10:23:39;;;;;;;29.58;19.60;;;;;;;;;;8420388;28;20152;-92
2023/09/30 10:27:54;;;;;;;32.17;19.08;;;;;;;;;;8429228;28;20055;-93
2023/09/30 10:36:50;;;;;;;30.43;17.73;;;;;;;;;;8426026;28;20112;-94
2023/09/30 10:40:53;;;;;;;24.27;15.55;;;;;;;;;;8410189;28;20380;-94
2023/09/30 10:45:43;;;;;;;26.83;15.45;;;;;;;;;;8428104;28;20040;-92
2023/09/30 10:49:48;;;;;;;26.85;14.82;;;;;;;;;;8410863;28;20040;-92
2023/09/30 10:53:52;;;;;;;22.58;14.38;;;;;;;;;;8422967;28;20055;-92
2023/09/30 10:57:55;;;;;;;22.35;13.50;;;;;;;;;;8420551;28;20044;-93
2023/09/30 11:01:59;;;;;;;22.55;12.38;;;;;;;;;;8399269;28;20101;-92
2023/09/30 11:06:05;;;;;;;19.40;12.23;;;;;;;;;;8408395;28;20056;-92
2023/09/30 11:10:08;;;;;;;23.80;12.93;;;;;;;;;;8416741;28;20048;-94
2023/09/30 11:14:25;;;;;;;22.33;11.55;;;;;;;;;;8427586;28;20039;-92
2023/09/30 11:18:31;;;;;;;19.80;12.18;;;;;;;;;;8395810;28;20043;-92
2023/09/30 11:26:57;;;;;;;18.27;11.20;;;;;;;;;;8422946;28;20061;-92
2023/09/30 11:31:01;;;;;;;20.48;11.32;;;;;;;;;;8418056;28;20104;-92
2023/09/30 11:35:09;;;;;;;20.20;11.05;;;;;;;;;;8426719;28;20092;-93
2023/09/30 11:39:23;;;;;;;18.90;11.13;;;;;;;;;;8421876;28;20436;-93
2023/09/30 11:43:27;;;;;;;19.25;10.40;;;;;;;;;;8401932;28;20168;-91
2023/09/30 11:47:33;;;;;;;17.70;9.55;;;;;;;;;;8422832;28;20048;-92
2023/09/30 11:51:46;;;;;;;15.63;9.00;;;;;;;;;;8402988;28;20083;-92
2023/09/30 11:56:02;;;;;;;14.85;7.97;;;;;;;;;;8404255;28;20048;-92
2023/09/30 12:00:13;;;;;;;14.10;7.20;;;;;;;;;;8397774;28;20056;-92
2023/09/30 12:04:19;;;;;;;11.13;6.53;;;;;;;;;;8389464;28;20056;-92
2023/09/30 12:08:23;;;;;;;13.02;6.50;;;;;;;;;;8388449;28;20068;-92
2023/09/30 12:12:31;;;;;;;12.18;6.38;;;;;;;;;;8393714;28;20113;-92
2023/09/30 12:16:35;;;;;;;11.93;5.50;;;;;;;;;;8410507;28;20060;-92
2023/09/30 12:20:48;;;;;;;11.60;5.00;;;;;;;;;;8405857;28;20052;-92
2023/09/30 12:24:52;;;;;;;12.63;5.57;;;;;;;;;;8396828;28;20051;-92
2023/09/30 12:28:57;;;;;;;11.07;5.05;;;;;;;;;;8401363;28;20380;-93
2023/09/30 12:33:00;;;;;;;6.95;3.75;;;;;;;;;;8412607;28;20048;-91
2023/09/30 12:37:04;;;;;;;6.68;3.05;;;;;;;;;;8419852;28;20510;-92
2023/09/30 12:41:08;;;;;;;4.65;2.63;;;;;;;;;;8388786;28;20143;-93
2023/09/30 12:45:13;;;;;;;7.93;3.08;;;;;;;;;;8417760;28;20192;-93
2023/09/30 12:49:16;;;;;;;9.25;3.25;;;;;;;;;;8396959;28;20067;-92
2023/09/30 12:53:20;;;;;;;8.25;3.28;;;;;;;;;;8406495;28;20056;-92
2023/09/30 12:57:23;;;;;;;7.65;2.92;;;;;;;;;;8406380;28;20541;-92
2023/09/30 13:01:31;;;;;;;5.93;3.00;;;;;;;;;;8416220;28;20113;-91
2023/09/30 13:05:38;;;;;;;7.90;3.47;;;;;;;;;;8395834;28;20488;-92
2023/09/30 13:14:09;;;;;;;7.80;2.78;;;;;;;;;;8408486;22;20525;-93
2023/09/30 13:18:20;;;;;;;9.25;3.60;;;;;;;;;;8356876;28;20376;-91
2023/09/30 13:22:27;;;;;;;5.40;2.42;;;;;;;;;;8358672;28;20049;-92
2023/09/30 13:26:34;;;;;;;6.57;2.20;;;;;;;;;;8360317;28;20061;-92
2023/09/30 13:30:37;;;;;;;7.07;2.50;;;;;;;;;;8359085;28;20056;-93
2023/09/30 13:34:41;;;;;;;5.18;2.42;;;;;;;;;;8353236;28;20069;-91
2023/09/30 13:38:46;;;;;;;7.05;2.60;;;;;;;;;;8355947;28;20048;-92
2023/09/30 13:42:49;;;;;;;5.32;2.60;;;;;;;;;;8350100;28;20401;-91
2023/09/30 13:46:52;;;;;;;9.20;2.90;;;;;;;;;;8360985;28;20072;-91
2023/09/30 13:51:05;;;;;;;6.93;2.50;;;;;;;;;;8328285;28;20052;-91
2023/09/30 13:55:18;;;;;;;5.55;2.47;;;;;;;;;;8324526;28;20543;-93
2023/09/30 13:59:21;;;;;;;5.90;2.33;;;;;;;;;;8327690;28;20424;-92
2023/09/30 14:03:25;;;;;;;9.45;2.55;;;;;;;;;;8358048;28;20540;-91
2023/09/30 14:07:30;;;;;;;6.85;2.35;;;;;;;;;;8346803;28;20481;-91
2023/09/30 14:11:37;;;;;;;5.35;2.38;;;;;;;;;;8359694;28;20049;-90
2023/09/30 14:15:40;;;;;;;6.13;2.30;;;;;;;;;;8364606;28;20453;-92
2023/09/30 14:19:43;;;;;;;6.68;2.53;;;;;;;;;;8345611;28;20413;-92
2023/09/30 14:23:51;;;;;;;6.03;2.22;;;;;;;;;;8334260;28;20061;-92
2023/09/30 14:27:54;;;;;;;6.00;2.45;;;;;;;;;;8347580;28;20398;-92
2023/09/30 14:31:57;;;;;;;10.80;2.22;;;;;;;;;;8375060;23;20551;-92
2023/09/30 14:36:05;;;;;;;8.73;2.65;;;;;;;;;;8347334;28;20515;-93
2023/09/30 14:40:28;;;;;;;8.60;2.53;;;;;;;;;;8427162;22;20084;-91
2023/09/30 14:44:37;;;;;;;8.73;2.40;;;;;;;;;;8382828;28;20045;-92
2023/09/30 14:48:42;;;;;;;6.47;2.80;;;;;;;;;;8369584;28;20045;-91
2023/09/30 14:57:13;;;;;;;7.18;2.53;;;;;;;;;;8383828;23;20067;-92
2023/09/30 15:01:19;;;;;;;8.40;2.55;;;;;;;;;;8323574;28;20127;-92
2023/09/30 15:05:24;;;;;;;5.80;2.30;;;;;;;;;;8317007;28;20069;-92
2023/09/30 15:09:30;;;;;;;11.63;3.20;;;;;;;;;;8314992;23;20136;-91
2023/09/30 15:13:35;;;;;;;9.98;3.08;;;;;;;;;;8318618;28;20045;-91
2023/09/30 15:17:39;;;;;;;10.90;3.47;;;;;;;;;;8314379;28;20056;-92
2023/09/30 15:21:42;;;;;;;11.38;2.58;;;;;;;;;;8308320;28;20045;-92
2023/09/30 15:25:46;;;;;;;7.82;2.90;;;;;;;;;;8338960;28;20057;-92
2023/09/30 15:29:50;;;;;;;9.52;2.90;;;;;;;;;;8325584;28;20061;-92
2023/09/30 15:33:54;;;;;;;10.98;3.08;;;;;;;;;;8343962;28;20050;-91
2023/09/30 15:37:57;;;;;;;9.50;3.00;;;;;;;;;;8323321;28;20050;-92
2023/09/30 15:42:00;;;;;;;11.93;2.92;;;;;;;;;;8346789;28;20255;-91
2023/09/30 15:46:05;;;;;;;7.13;2.63;;;;;;;;;;8328185;28;20057;-91
2023/09/30 15:50:09;;;;;;;8.40;3.00;;;;;;;;;;8344307;28;20052;-91
2023/09/30 15:54:12;;;;;;;6.97;3.03;;;;;;;;;;8334268;28;20080;-91
2023/09/30 15:58:16;;;;;;;8.02;2.97;;;;;;;;;;8303223;28;20187;-92
2023/09/30 16:02:21;;;;;;;7.95;2.60;;;;;;;;;;8305265;28;20077;-92
2023/09/30 16:06:33;;;;;;;7.88;2.88;;;;;;;;;;8328684;28;20100;-92
2023/09/30 16:10:37;;;;;;;7.55;3.22;;;;;;;;;;8322884;28;20540;-93
2023/09/30 16:14:40;;;;;;;11.85;3.47;;;;;;;;;;8314045;28;20479;-91
2023/09/30 16:18:59;;;;;;;12.00;3.38;;;;;;;;;;8318963;28;20406;-92
2023/09/30 16:23:22;;;;;;;8.20;3.15;;;;;;;;;;8322967;28;20061;-92
2023/09/30 16:27:40;;;;;;;12.65;3.50;;;;;;;;;;8321587;28;20045;-92
2023/09/30 16:31:44;;;;;;;13.15;5.03;;;;;;;;;;8322236;28;20105;-92
2023/09/30 16:35:51;;;;;;;15.05;6.68;;;;;;;;;;8321690;28;20092;-93
2023/09/30 16:39:55;;;;;;;12.50;5.07;;;;;;;;;;8323410;28;20050;-93
2023/09/30 16:43:58;;;;;;;15.55;5.13;;;;;;;;;;8288115;28;20056;-91
2023/09/30 16:48:02;;;;;;;12.25;6.30;;;;;;;;;;8311320;28;20501;-92
2023/09/30 16:52:08;;;;;;;17.08;6.80;;;;;;;;;;8315572;28;20056;-92
2023/09/30 16:56:13;;;;;;;26.80;8.55;;;;;;;;;;8333283;28;20046;-92
2023/09/30 17:00:18;;;;;;;24.58;8.20;;;;;;;;;;8315570;28;20052;-92
2023/09/30 17:04:31;;;;;;;23.25;8.27;;;;;;;;;;8334543;28;20056;-93
2023/09/30 17:08:37;;;;;;;19.45;6.78;;;;;;;;;;8332389;28;20088;-92
2023/09/30 17:12:40;;;;;;;26.17;8.32;;;;;;;;;;8322923;28;20060;-92
2023/09/30 17:16:43;;;;;;;32.00;10.85;;;;;;;;;;8308952;28;20059;-94
2023/09/30 17:20:47;;;;;;;27.30;10.35;;;;;;;;;;8331602;28;20046;-93
2023/09/30 17:24:54;;;;;;;31.77;10.55;;;;;;;;;;8317762;28;20054;-91
2023/09/30 17:28:57;;;;;;;24.52;9.63;;;;;;;;;;8334593;28;20042;-92
2023/09/30 17:33:01;;;;;;;30.48;10.15;;;;;;;;;;8317212;28;20112;-92
2023/09/30 17:41:29;;;;;;;27.25;9.77;;;;;;;;;;8325157;28;20054;-93
2023/09/30 17:45:39;;;;;;;27.27;9.70;;;;;;;;;;8312194;28;20080;-93
2023/09/30 17:54:22;;;;;;;28.67;10.20;;;;;;;;;;8333934;28;20124;-93
2023/09/30 17:58:28;;;;;;;23.88;8.77;;;;;;;;;;8325169;28;20125;-92
2023/09/30 18:02:39;;;;;;;19.08;8.68;;;;;;;;;;8300283;28;20061;-93
2023/09/30 18:06:45;;;;;;;24.45;9.00;;;;;;;;;;8330732;28;20050;-94
2023/09/30 18:11:43;;;;;;;19.23;8.55;;;;;;;;;;8333745;28;20123;-93
2023/09/30 18:15:49;;;;;;;19.10;8.70;;;;;;;;;;8325845;28;20168;-91
2023/09/30 18:19:55;;;;;;;16.52;9.10;;;;;;;;;;8305182;28;20477;-91
2023/09/30 18:24:03;;;;;;;22.83;9.02;;;;;;;;;;8332907;28;20052;-92
2023/09/30 18:28:09;;;;;;;28.08;9.93;;;;;;;;;;8333338;28;20140;-95
2023/09/30 18:32:21;;;;;;;16.25;8.38;;;;;;;;;;8316121;28;20057;-92
2023/09/30 18:36:27;;;;;;;17.60;9.00;;;;;;;;;;8316298;28;20120;-93
2023/09/30 18:40:34;;;;;;;19.85;8.65;;;;;;;;;;8333320;28;20068;-93
2023/09/30 18:44:49;;;;;;;15.27;7.32;;;;;;;;;;8310174;28;20065;-95
2023/09/30 18:49:03;;;;;;;16.08;7.15;;;;;;;;;;8310069;28;20049;-94
2023/09/30 18:53:09;;;;;;;19.30;6.88;;;;;;;;;;8321299;28;20041;-92
2023/09/30 18:57:12;;;;;;;17.75;7.45;;;;;;;;;;8287783;28;20046;-94
2023/09/30 19:01:17;;;;;;;17.75;8.35;;;;;;;;;;8290893;28;20045;-91
2023/09/30 19:05:23;;;;;;;25.15;8.68;;;;;;;;;;8309720;28;20049;-92
2023/09/30 19:09:27;;;;;;;19.95;8.38;;;;;;;;;;8316761;28;20187;-91
2023/09/30 19:13:30;;;;;;;24.27;9.15;;;;;;;;;;8309374;28;20171;-92
2023/09/30 19:18:13;;;;;;;;;;;;;;;;;;;;;
2023/09/30 19:22:26;;;;;;;24.13;8.77;;;;;;;;;;8312548;28;20042;-92
2023/09/30 19:26:30;;;;;;;23.90;9.35;;;;;;;;;;8317751;28;20056;-94
2023/09/30 19:30:35;;;;;;;20.65;8.40;;;;;;;;;;8321032;28;20049;-93
2023/09/30 19:34:40;;;;;;;27.20;10.30;;;;;;;;;;8320738;28;20042;-93
2023/09/30 19:38:47;;;;;;;18.80;8.90;;;;;;;;;;8331987;28;20485;-92
2023/09/30 19:42:51;;;;;;;25.35;11.43;;;;;;;;;;8315575;28;20493;-94
2023/09/30 19:46:55;;;;;;;31.17;13.55;;;;;;;;;;8332076;28;20041;-94
2023/09/30 19:51:01;;;;;;;17.30;7.38;;;;;;;;;;8332634;28;20052;-92
2023/09/30 19:55:08;;;;;;;21.95;6.97;;;;;;;;;;8315080;28;20366;-94
2023/09/30 19:59:12;;;;;;;20.38;7.97;;;;;;;;;;8331906;28;20406;-93
2023/09/30 20:03:16;;;;;;;23.45;9.50;;;;;;;;;;8314734;28;20083;-93
2023/09/30 20:07:20;;;;;;;26.35;10.60;;;;;;;;;;8331763;28;20054;-94
2023/09/30 20:11:28;;;;;;;39.72;14.73;;;;;;;;;;8314656;28;20049;-95
2023/09/30 20:15:32;;;;;;;35.47;11.68;;;;;;;;;;8315738;28;20049;-92
2023/09/30 20:19:35;;;;;;;35.55;13.02;;;;;;;;;;8315045;28;20064;-95
2023/09/30 20:34:18;;;;;;;29.08;8.23;;;;;;;;;;8231154;28;20522;-95
2023/09/30 20:38:21;;;;;;;19.30;7.95;;;;;;;;;;8237923;28;20081;-92
2023/09/30 20:42:40;;;;;;;19.63;7.57;;;;;;;;;;8238385;28;20086;-93
2023/09/30 20:47:10;;;;;;;19.77;7.55;;;;;;;;;;8238012;28;21622;-95
2023/09/30 20:51:15;;;;;;;17.83;7.30;;;;;;;;;;8226191;28;20423;-95
2023/09/30 21:00:09;;;;;;;18.25;8.23;;;;;;;;;;8231069;28;20141;-93
2023/09/30 21:04:31;;;;;;;24.67;7.88;;;;;;;;;;8210000;28;20089;-93
2023/09/30 21:09:07;;;;;;;20.65;7.85;;;;;;;;;;8235868;28;20054;-93
2023/09/30 21:13:42;;;;;;;25.85;7.70;;;;;;;;;;8235718;28;20181;-93
2023/09/30 21:23:35;;;;;;;22.48;7.82;;;;;;;;;;8263741;28;20035;-94
2023/09/30 21:27:41;;;;;;;22.15;7.95;;;;;;;;;;8261224;28;20134;-93
2023/09/30 21:31:53;;;;;;;19.45;7.72;;;;;;;;;;8244107;28;20051;-92
2023/09/30 21:36:14;;;;;;;17.88;6.80;;;;;;;;;;8236217;28;20086;-95
2023/09/30 21:45:42;;;;;;;;;;;;;;;;;;;;;
2023/09/30 22:01:18;;;;;;;17.27;7.88;;;;;;;;;;8256358;28;20052;-94
2023/09/30 22:11:02;;;;;;;20.83;9.03;;;;;;;;;;8295439;28;20069;-94
2023/09/30 22:20:12;;;;;;;21.52;8.50;;;;;;;;;;8217519;28;20151;-94
2023/09/30 22:24:16;;;;;;;22.80;8.52;;;;;;;;;;8230323;28;20059;-94
2023/09/30 22:28:21;;;;;;;20.02;8.77;;;;;;;;;;8209538;28;20490;-95
2023/09/30 22:32:24;;;;;;;23.52;9.30;;;;;;;;;;8221061;28;20106;-95
2023/09/30 22:36:37;;;;;;;22.77;7.93;;;;;;;;;;8233026;28;20398;-95
2023/09/30 22:40:43;;;;;;;20.55;7.97;;;;;;;;;;8308419;28;20485;-94
2023/09/30 22:45:19;;;;;;;17.20;7.70;;;;;;;;;;8324572;28;20048;-95
2023/09/30 22:49:22;;;;;;;18.92;7.93;;;;;;;;;;8284408;28;20042;-91
2023/09/30 22:53:34;;;;;;;15.90;7.97;;;;;;;;;;8320823;28;20045;-95
2023/09/30 22:57:44;;;;;;;20.45;8.35;;;;;;;;;;8322261;28;20069;-94
2023/09/30 23:01:49;;;;;;;26.75;10.05;;;;;;;;;;8328632;28;20041;-94
2023/09/30 23:05:53;;;;;;;17.30;7.68;;;;;;;;;;8317707;28;20133;-94
2023/09/30 23:09:58;;;;;;;17.00;7.57;;;;;;;;;;8311313;28;20083;-93
2023/09/30 23:14:02;;;;;;;18.90;8.95;;;;;;;;;;8310184;28;20073;-95
2023/09/30 23:22:28;;;;;;;25.03;9.17;;;;;;;;;;8310012;28;20457;-94
2023/09/30 23:26:33;;;;;;;22.77;9.13;;;;;;;;;;8327971;28;20052;-94
2023/09/30 23:30:36;;;;;;;20.13;9.70;;;;;;;;;;8328264;28;20049;-94
2023/09/30 23:34:43;;;;;;;22.20;9.07;;;;;;;;;;8333836;28;20092;-93
2023/09/30 23:38:50;;;;;;;24.88;9.25;;;;;;;;;;8306065;28;20080;-94
2023/09/30 23:42:54;;;;;;;15.80;7.32;;;;;;;;;;8321117;28;20129;-95
2023/09/30 23:46:56;;;;;;;22.42;7.60;;;;;;;;;;8312919;28;20076;-95
2023/09/30 23:51:04;;;;;;;19.02;6.70;;;;;;;;;;8307634;23;20058;-93
2023/09/30 23:55:25;;;;;;;23.17;8.90;;;;;;;;;;8319182;23;20057;-92
